createdAt,value
2022-11-13T00:00:29.364Z,0.00
2022-11-13T00:01:29.371Z,0.00
2022-11-13T00:02:29.405Z,0.00
2022-11-13T00:03:29.376Z,0.00
2022-11-13T00:04:29.373Z,0.00
2022-11-13T00:05:29.376Z,0.00
2022-11-13T00:06:29.386Z,0.00
2022-11-13T00:07:29.426Z,0.00
2022-11-13T00:08:29.875Z,0.00
2022-11-13T00:09:29.390Z,0.00
2022-11-13T00:10:29.395Z,0.00
2022-11-13T00:11:29.512Z,0.00
2022-11-13T00:12:29.402Z,0.00
2022-11-13T00:13:30.605Z,0.00
2022-11-13T00:14:29.415Z,0.00
2022-11-13T00:15:29.417Z,0.00
2022-11-13T00:16:29.419Z,0.00
2022-11-13T00:17:29.417Z,0.00
2022-11-13T00:18:29.862Z,0.00
2022-11-13T00:19:29.424Z,0.00
2022-11-13T00:20:29.436Z,0.00
2022-11-13T00:21:29.437Z,0.00
2022-11-13T00:22:29.442Z,0.00
2022-11-13T00:23:29.444Z,0.00
2022-11-13T00:24:29.448Z,0.00
2022-11-13T00:25:29.444Z,0.00
2022-11-13T00:26:29.455Z,0.00
2022-11-13T00:27:29.564Z,0.00
2022-11-13T00:28:29.831Z,0.00
2022-11-13T00:29:29.464Z,0.00
2022-11-13T00:30:29.466Z,0.00
2022-11-13T00:31:29.464Z,0.00
2022-11-13T00:32:29.467Z,0.00
2022-11-13T00:33:54.850Z,0.00
2022-11-13T00:34:59.411Z,0.00
2022-11-13T00:35:29.482Z,0.00
2022-11-13T00:36:29.488Z,0.00
2022-11-13T00:37:29.489Z,0.00
2022-11-13T00:38:29.834Z,0.00
2022-11-13T00:39:29.495Z,0.00
2022-11-13T00:40:29.499Z,0.00
2022-11-13T00:41:29.502Z,0.00
2022-11-13T00:42:29.500Z,0.00
2022-11-13T00:43:29.622Z,0.00
2022-11-13T00:44:29.509Z,0.00
2022-11-13T00:45:29.516Z,0.00
2022-11-13T00:46:29.518Z,0.00
2022-11-13T00:47:29.523Z,0.00
2022-11-13T00:48:29.905Z,0.00
2022-11-13T00:49:29.530Z,0.00
2022-11-13T00:50:29.524Z,0.00
2022-11-13T00:51:29.537Z,0.00
2022-11-13T00:52:29.536Z,0.00
2022-11-13T00:53:29.543Z,0.00
2022-11-13T00:54:29.537Z,0.00
2022-11-13T00:55:29.542Z,0.00
2022-11-13T00:56:29.553Z,0.00
2022-11-13T00:57:29.557Z,0.00
2022-11-13T00:58:29.987Z,0.00
2022-11-13T00:59:29.668Z,0.00
2022-11-13T01:00:29.564Z,0.00
2022-11-13T01:01:29.653Z,0.00
2022-11-13T01:02:29.570Z,0.00
2022-11-13T01:03:29.567Z,0.00
2022-11-13T01:04:29.574Z,0.00
2022-11-13T01:05:29.580Z,0.00
2022-11-13T01:06:29.596Z,0.00
2022-11-13T01:07:29.586Z,0.00
2022-11-13T01:08:29.974Z,0.00
2022-11-13T01:09:29.587Z,0.00
2022-11-13T01:10:29.593Z,0.00
2022-11-13T01:11:29.594Z,0.00
2022-11-13T01:12:29.606Z,0.00
2022-11-13T01:13:29.601Z,0.00
2022-11-13T01:14:29.602Z,0.00
2022-11-13T01:15:29.728Z,0.00
2022-11-13T01:16:29.609Z,0.00
2022-11-13T01:17:29.615Z,0.00
2022-11-13T01:18:29.915Z,0.00
2022-11-13T01:19:29.628Z,0.00
2022-11-13T01:20:29.622Z,0.00
2022-11-13T01:21:29.636Z,0.00
2022-11-13T01:22:29.628Z,0.00
2022-11-13T01:23:29.642Z,0.00
2022-11-13T01:24:29.642Z,0.00
2022-11-13T01:25:29.650Z,0.00
2022-11-13T01:26:29.644Z,0.00
2022-11-13T01:27:29.646Z,0.00
2022-11-13T01:28:29.901Z,0.00
2022-11-13T01:29:29.660Z,0.00
2022-11-13T01:30:29.655Z,0.00
2022-11-13T01:31:29.787Z,0.00
2022-11-13T01:32:29.663Z,0.00
2022-11-13T01:33:29.669Z,0.00
2022-11-13T01:34:29.675Z,0.00
2022-11-13T01:35:29.669Z,0.00
2022-11-13T01:36:29.691Z,0.00
2022-11-13T01:37:29.684Z,0.00
2022-11-13T01:38:33.160Z,0.00
2022-11-13T01:39:29.683Z,0.00
2022-11-13T01:40:29.686Z,0.00
2022-11-13T01:41:29.695Z,0.00
2022-11-13T01:42:29.700Z,0.00
2022-11-13T01:43:29.702Z,0.00
2022-11-13T01:44:29.707Z,0.00
2022-11-13T01:45:29.707Z,0.00
2022-11-13T01:46:29.704Z,0.00
2022-11-13T01:47:29.826Z,0.00
2022-11-13T01:48:29.974Z,0.00
2022-11-13T01:49:29.722Z,0.00
2022-11-13T01:50:29.724Z,0.00
2022-11-13T01:51:29.721Z,0.00
2022-11-13T01:52:29.724Z,0.00
2022-11-13T01:53:29.727Z,0.00
2022-11-13T01:54:29.728Z,0.00
2022-11-13T01:55:29.740Z,0.00
2022-11-13T01:56:29.735Z,0.00
2022-11-13T01:57:29.747Z,0.00
2022-11-13T01:58:30.068Z,0.00
2022-11-13T01:59:29.747Z,0.00
2022-11-13T02:00:29.747Z,0.00
2022-11-13T02:01:29.813Z,0.00
2022-11-13T02:02:29.754Z,0.00
2022-11-13T02:03:29.868Z,0.00
2022-11-13T02:04:29.760Z,0.00
2022-11-13T02:05:29.769Z,0.00
2022-11-13T02:06:29.772Z,0.00
2022-11-13T02:07:29.767Z,0.00
2022-11-13T02:08:30.271Z,0.00
2022-11-13T02:09:29.773Z,0.00
2022-11-13T02:10:29.779Z,0.00
2022-11-13T02:11:29.779Z,0.00
2022-11-13T02:12:29.791Z,0.00
2022-11-13T02:13:29.799Z,0.00
2022-11-13T02:14:29.789Z,0.00
2022-11-13T02:15:29.791Z,0.00
2022-11-13T02:16:29.796Z,0.00
2022-11-13T02:17:29.804Z,0.00
2022-11-13T02:18:30.241Z,0.00
2022-11-13T02:19:29.926Z,0.00
2022-11-13T02:20:29.806Z,0.00
2022-11-13T02:21:29.817Z,0.00
2022-11-13T02:22:29.811Z,0.00
2022-11-13T02:23:29.816Z,0.00
2022-11-13T02:24:31.753Z,0.00
2022-11-13T02:25:29.829Z,0.00
2022-11-13T02:26:29.831Z,0.00
2022-11-13T02:27:29.830Z,0.00
2022-11-13T02:28:30.377Z,0.00
2022-11-13T02:29:29.834Z,0.00
2022-11-13T02:30:29.843Z,0.00
2022-11-13T02:31:29.846Z,0.00
2022-11-13T02:32:29.853Z,0.00
2022-11-13T02:33:29.857Z,0.00
2022-11-13T02:34:29.846Z,0.00
2022-11-13T02:35:29.965Z,0.00
2022-11-13T02:36:29.853Z,0.00
2022-11-13T02:37:29.864Z,0.00
2022-11-13T02:38:30.191Z,0.00
2022-11-13T02:39:29.859Z,0.00
2022-11-13T02:40:29.879Z,0.00
2022-11-13T02:41:29.874Z,0.00
2022-11-13T02:42:29.876Z,0.00
2022-11-13T02:43:29.888Z,0.00
2022-11-13T02:44:29.876Z,0.00
2022-11-13T02:45:29.885Z,0.00
2022-11-13T02:46:29.882Z,0.00
2022-11-13T02:47:29.890Z,0.00
2022-11-13T02:48:30.166Z,0.00
2022-11-13T02:49:29.898Z,0.00
2022-11-13T02:50:29.892Z,0.00
2022-11-13T02:51:30.013Z,0.00
2022-11-13T02:52:29.942Z,0.00
2022-11-13T02:53:29.901Z,0.00
2022-11-13T02:54:29.912Z,0.00
2022-11-13T02:55:29.915Z,0.00
2022-11-13T02:56:29.916Z,0.00
2022-11-13T02:57:29.914Z,0.00
2022-11-13T02:58:30.460Z,0.00
2022-11-13T02:59:29.919Z,0.00
2022-11-13T03:00:29.922Z,0.00
2022-11-13T03:01:30.092Z,0.00
2022-11-13T03:02:29.934Z,0.00
2022-11-13T03:03:56.548Z,0.00
2022-11-13T03:04:50.232Z,0.00
2022-11-13T03:05:29.938Z,0.00
2022-11-13T03:06:29.946Z,0.00
2022-11-13T03:07:30.068Z,0.00
2022-11-13T03:08:30.927Z,0.00
2022-11-13T03:09:29.960Z,0.00
2022-11-13T03:10:29.956Z,0.00
2022-11-13T03:11:29.964Z,0.00
2022-11-13T03:12:29.963Z,0.00
2022-11-13T03:13:29.961Z,0.00
2022-11-13T03:14:29.970Z,0.00
2022-11-13T03:15:29.970Z,0.00
2022-11-13T03:16:29.966Z,0.00
2022-11-13T03:17:29.976Z,0.00
2022-11-13T03:18:30.229Z,0.00
2022-11-13T03:19:29.974Z,0.00
2022-11-13T03:20:29.981Z,0.00
2022-11-13T03:21:29.979Z,0.00
2022-11-13T03:22:29.982Z,0.00
2022-11-13T03:23:30.118Z,0.00
2022-11-13T03:24:29.991Z,0.00
2022-11-13T03:25:29.994Z,0.00
2022-11-13T03:26:29.996Z,0.00
2022-11-13T03:27:30.005Z,0.00
2022-11-13T03:28:30.319Z,0.00
2022-11-13T03:29:30.003Z,0.00
2022-11-13T03:30:30.010Z,0.00
2022-11-13T03:31:30.005Z,0.00
2022-11-13T03:32:30.014Z,0.00
2022-11-13T03:33:30.032Z,0.00
2022-11-13T03:34:30.014Z,0.00
2022-11-13T03:35:32.482Z,0.00
2022-11-13T03:36:30.027Z,0.00
2022-11-13T03:37:30.023Z,0.00
2022-11-13T03:38:30.423Z,0.00
2022-11-13T03:39:30.141Z,0.00
2022-11-13T03:40:30.037Z,0.00
2022-11-13T03:41:30.043Z,0.00
2022-11-13T03:42:30.043Z,0.00
2022-11-13T03:43:30.046Z,0.00
2022-11-13T03:44:30.065Z,0.00
2022-11-13T03:45:30.049Z,0.00
2022-11-13T03:46:30.046Z,0.00
2022-11-13T03:47:30.048Z,0.00
2022-11-13T03:48:30.402Z,0.00
2022-11-13T03:49:30.054Z,0.00
2022-11-13T03:50:30.062Z,0.00
2022-11-13T03:51:30.066Z,0.00
2022-11-13T03:52:30.064Z,0.00
2022-11-13T03:53:30.065Z,0.00
2022-11-13T03:54:30.069Z,0.00
2022-11-13T03:55:30.183Z,0.00
2022-11-13T03:56:30.074Z,0.00
2022-11-13T03:57:30.082Z,0.00
2022-11-13T03:58:30.535Z,0.00
2022-11-13T03:59:30.087Z,0.00
2022-11-13T04:00:30.093Z,0.00
2022-11-13T04:01:30.122Z,0.00
2022-11-13T04:02:30.097Z,0.00
2022-11-13T04:03:30.101Z,0.00
2022-11-13T04:04:30.095Z,0.00
2022-11-13T04:05:30.099Z,0.00
2022-11-13T04:06:30.099Z,0.00
2022-11-13T04:07:30.115Z,0.00
2022-11-13T04:08:30.372Z,0.00
2022-11-13T04:09:30.110Z,0.00
2022-11-13T04:10:30.112Z,0.00
2022-11-13T04:11:30.237Z,0.00
2022-11-13T04:12:30.117Z,0.00
2022-11-13T04:13:30.129Z,0.00
2022-11-13T04:14:30.130Z,0.00
2022-11-13T04:15:30.137Z,0.00
2022-11-13T04:16:30.129Z,0.00
2022-11-13T04:17:30.132Z,0.00
2022-11-13T04:18:30.495Z,0.00
2022-11-13T04:19:30.147Z,0.00
2022-11-13T04:20:30.142Z,0.00
2022-11-13T04:21:30.143Z,0.00
2022-11-13T04:22:30.159Z,0.00
2022-11-13T04:23:30.154Z,0.00
2022-11-13T04:24:30.160Z,0.00
2022-11-13T04:25:30.156Z,0.00
2022-11-13T04:26:30.159Z,0.00
2022-11-13T04:27:30.291Z,0.00
2022-11-13T04:28:30.506Z,0.00
2022-11-13T04:29:30.173Z,0.00
2022-11-13T04:30:30.172Z,0.00
2022-11-13T04:31:30.182Z,0.00
2022-11-13T04:32:30.183Z,0.00
2022-11-13T04:33:30.190Z,0.00
2022-11-13T04:34:30.182Z,0.00
2022-11-13T04:35:30.184Z,0.00
2022-11-13T04:36:30.188Z,0.00
2022-11-13T04:37:30.195Z,0.00
2022-11-13T04:38:30.553Z,0.00
2022-11-13T04:39:30.198Z,0.00
2022-11-13T04:40:30.197Z,0.00
2022-11-13T04:41:30.208Z,0.00
2022-11-13T04:42:30.200Z,0.00
2022-11-13T04:43:30.332Z,0.00
2022-11-13T04:44:30.212Z,0.00
2022-11-13T04:45:30.216Z,0.00
2022-11-13T04:46:30.219Z,0.00
2022-11-13T04:47:30.222Z,0.00
2022-11-13T04:48:30.573Z,0.00
2022-11-13T04:49:30.228Z,0.00
2022-11-13T04:50:30.225Z,0.00
2022-11-13T04:51:30.227Z,0.00
2022-11-13T04:52:30.237Z,0.00
2022-11-13T04:53:30.238Z,0.00
2022-11-13T04:54:30.242Z,0.00
2022-11-13T04:55:30.246Z,0.00
2022-11-13T04:56:30.239Z,0.00
2022-11-13T04:57:30.250Z,0.00
2022-11-13T04:58:30.691Z,0.00
2022-11-13T04:59:30.362Z,0.00
2022-11-13T05:00:30.250Z,0.00
2022-11-13T05:01:30.409Z,0.00
2022-11-13T05:02:30.263Z,0.00
2022-11-13T05:03:30.265Z,0.00
2022-11-13T05:04:30.266Z,0.00
2022-11-13T05:05:30.277Z,0.00
2022-11-13T05:06:30.265Z,0.00
2022-11-13T05:07:30.276Z,0.00
2022-11-13T05:08:30.584Z,0.00
2022-11-13T05:09:30.277Z,0.00
2022-11-13T05:10:30.281Z,0.00
2022-11-13T05:11:30.290Z,0.00
2022-11-13T05:12:30.288Z,0.00
2022-11-13T05:13:30.284Z,0.00
2022-11-13T05:14:30.287Z,0.00
2022-11-13T05:15:30.407Z,0.00
2022-11-13T05:16:30.294Z,0.00
2022-11-13T05:17:30.293Z,0.00
2022-11-13T05:18:30.800Z,0.00
2022-11-13T05:19:30.298Z,0.00
2022-11-13T05:20:30.302Z,0.00
2022-11-13T05:21:30.302Z,0.00
2022-11-13T05:22:30.308Z,0.00
2022-11-13T05:23:30.316Z,0.00
2022-11-13T05:24:30.314Z,0.00
2022-11-13T05:25:30.322Z,0.00
2022-11-13T05:26:30.320Z,0.00
2022-11-13T05:27:30.319Z,0.00
2022-11-13T05:28:30.637Z,0.00
2022-11-13T05:29:30.332Z,0.00
2022-11-13T05:30:30.326Z,0.00
2022-11-13T05:31:30.447Z,0.00
2022-11-13T05:32:30.331Z,0.00
2022-11-13T05:33:30.344Z,0.00
2022-11-13T05:34:30.337Z,0.00
2022-11-13T05:35:30.342Z,0.00
2022-11-13T05:36:30.343Z,0.00
2022-11-13T05:37:30.349Z,0.00
2022-11-13T05:38:30.705Z,0.00
2022-11-13T05:39:30.351Z,0.00
2022-11-13T05:40:30.361Z,0.00
2022-11-13T05:41:30.365Z,0.00
2022-11-13T05:42:30.366Z,0.00
2022-11-13T05:43:30.362Z,0.00
2022-11-13T05:44:30.372Z,0.00
2022-11-13T05:45:30.368Z,0.00
2022-11-13T05:46:30.378Z,0.00
2022-11-13T05:47:30.494Z,0.00
2022-11-13T05:48:30.877Z,0.00
2022-11-13T05:49:30.384Z,0.00
2022-11-13T05:50:30.389Z,0.00
2022-11-13T05:51:30.390Z,0.00
2022-11-13T05:52:30.386Z,0.00
2022-11-13T05:53:30.388Z,0.00
2022-11-13T05:54:30.409Z,0.00
2022-11-13T05:55:30.395Z,0.00
2022-11-13T05:56:30.405Z,0.00
2022-11-13T05:57:30.399Z,0.00
2022-11-13T05:58:30.713Z,0.00
2022-11-13T05:59:30.410Z,0.00
2022-11-13T06:00:30.408Z,0.00
2022-11-13T06:01:30.483Z,0.00
2022-11-13T06:02:30.414Z,0.00
2022-11-13T06:03:30.442Z,0.00
2022-11-13T06:04:30.423Z,0.00
2022-11-13T06:05:30.430Z,0.00
2022-11-13T06:06:30.431Z,0.00
2022-11-13T06:07:30.434Z,0.00
2022-11-13T06:08:30.725Z,0.00
2022-11-13T06:09:30.432Z,0.00
2022-11-13T06:10:30.439Z,0.00
2022-11-13T06:11:30.443Z,0.00
2022-11-13T06:12:30.451Z,0.00
2022-11-13T06:13:30.449Z,0.00
2022-11-13T06:14:30.441Z,0.00
2022-11-13T06:15:30.454Z,0.00
2022-11-13T06:16:30.457Z,0.00
2022-11-13T06:17:30.455Z,0.00
2022-11-13T06:18:30.708Z,0.00
2022-11-13T06:19:30.577Z,0.00
2022-11-13T06:20:30.470Z,0.00
2022-11-13T06:21:30.468Z,0.00
2022-11-13T06:22:30.465Z,0.00
2022-11-13T06:23:30.474Z,0.00
2022-11-13T06:24:30.477Z,0.00
2022-11-13T06:25:30.472Z,0.00
2022-11-13T06:26:30.483Z,0.00
2022-11-13T06:27:30.484Z,0.00
2022-11-13T06:28:30.941Z,0.00
2022-11-13T06:29:30.490Z,0.00
2022-11-13T06:30:30.486Z,0.00
2022-11-13T06:31:30.491Z,0.00
2022-11-13T06:32:30.492Z,0.00
2022-11-13T06:33:30.493Z,0.00
2022-11-13T06:34:30.496Z,5.63
2022-11-13T06:35:30.616Z,5.63
2022-11-13T06:36:30.509Z,5.63
2022-11-13T06:37:34.638Z,5.63
2022-11-13T06:38:30.934Z,5.63
2022-11-13T06:39:30.516Z,5.63
2022-11-13T06:40:30.516Z,5.63
2022-11-13T06:41:30.516Z,5.63
2022-11-13T06:42:30.526Z,5.63
2022-11-13T06:43:30.519Z,5.63
2022-11-13T06:44:30.524Z,5.63
2022-11-13T06:45:30.526Z,11.25
2022-11-13T06:46:30.536Z,11.25
2022-11-13T06:47:30.532Z,11.25
2022-11-13T06:48:31.030Z,11.25
2022-11-13T06:49:30.537Z,11.25
2022-11-13T06:50:30.549Z,11.25
2022-11-13T06:51:30.674Z,11.25
2022-11-13T06:52:30.555Z,11.25
2022-11-13T06:53:30.552Z,11.25
2022-11-13T06:54:30.551Z,16.88
2022-11-13T06:55:30.562Z,16.88
2022-11-13T06:56:30.564Z,16.88
2022-11-13T06:57:30.561Z,16.88
2022-11-13T06:58:30.916Z,16.88
2022-11-13T06:59:30.566Z,16.88
2022-11-13T07:00:36.215Z,16.88
2022-11-13T07:01:30.609Z,22.50
2022-11-13T07:02:30.573Z,22.50
2022-11-13T07:03:30.585Z,22.50
2022-11-13T07:04:30.587Z,22.50
2022-11-13T07:05:30.586Z,22.50
2022-11-13T07:06:30.585Z,22.50
2022-11-13T07:07:30.703Z,22.50
2022-11-13T07:08:30.948Z,22.50
2022-11-13T07:09:30.604Z,28.13
2022-11-13T07:10:30.652Z,28.13
2022-11-13T07:11:30.609Z,28.13
2022-11-13T07:12:30.604Z,28.13
2022-11-13T07:13:30.608Z,28.13
2022-11-13T07:14:30.612Z,33.75
2022-11-13T07:15:30.624Z,33.75
2022-11-13T07:16:44.031Z,33.75
2022-11-13T07:17:30.628Z,28.13
2022-11-13T07:18:31.012Z,28.13
2022-11-13T07:19:30.626Z,28.13
2022-11-13T07:20:30.767Z,22.50
2022-11-13T07:21:30.633Z,22.50
2022-11-13T07:22:30.644Z,22.50
2022-11-13T07:23:30.755Z,22.50
2022-11-13T07:24:30.651Z,28.13
2022-11-13T07:25:30.656Z,28.13
2022-11-13T07:26:30.650Z,28.13
2022-11-13T07:27:30.656Z,28.13
2022-11-13T07:28:30.999Z,28.13
2022-11-13T07:29:30.665Z,28.13
2022-11-13T07:30:30.660Z,28.13
2022-11-13T07:31:30.667Z,33.75
2022-11-13T07:32:30.675Z,33.75
2022-11-13T07:33:30.680Z,33.75
2022-11-13T07:34:30.675Z,33.75
2022-11-13T07:35:30.687Z,33.75
2022-11-13T07:36:30.681Z,33.75
2022-11-13T07:37:30.686Z,33.75
2022-11-13T07:38:30.949Z,33.75
2022-11-13T07:39:30.816Z,33.75
2022-11-13T07:40:30.702Z,33.75
2022-11-13T07:41:30.700Z,39.38
2022-11-13T07:42:30.699Z,39.38
2022-11-13T07:43:30.705Z,39.38
2022-11-13T07:44:53.664Z,39.38
2022-11-13T07:45:30.719Z,45.00
2022-11-13T07:46:30.712Z,45.00
2022-11-13T07:47:30.717Z,45.00
2022-11-13T07:48:31.030Z,50.63
2022-11-13T07:49:30.725Z,50.63
2022-11-13T07:50:30.726Z,50.63
2022-11-13T07:51:30.736Z,50.63
2022-11-13T07:52:30.741Z,56.25
2022-11-13T07:53:30.745Z,56.25
2022-11-13T07:54:30.741Z,61.88
2022-11-13T07:55:30.856Z,61.88
2022-11-13T07:56:30.747Z,61.88
2022-11-13T07:57:30.757Z,61.88
2022-11-13T07:58:31.177Z,73.13
2022-11-13T07:59:30.762Z,67.50
2022-11-13T08:00:30.852Z,73.13
2022-11-13T08:21:41.629Z,95.63
2022-11-13T08:22:41.515Z,95.63
2022-11-13T08:23:41.512Z,95.63
2022-11-13T08:24:41.515Z,101.25
2022-11-13T08:25:41.519Z,90.00
2022-11-13T08:26:41.522Z,90.00
2022-11-13T08:27:41.535Z,95.63
2022-11-13T08:28:41.538Z,95.63
2022-11-13T08:29:41.535Z,84.38
2022-11-13T08:30:41.543Z,84.38
2022-11-13T08:31:41.542Z,84.38
2022-11-13T08:32:41.550Z,84.38
2022-11-13T08:33:41.555Z,95.63
2022-11-13T08:34:41.557Z,90.00
2022-11-13T08:35:41.563Z,84.38
2022-11-13T08:36:41.563Z,84.38
2022-11-13T08:37:41.592Z,78.75
2022-11-13T08:38:41.565Z,84.38
2022-11-13T08:39:41.567Z,84.38
2022-11-13T08:40:41.578Z,78.75
2022-11-13T08:41:41.582Z,78.75
2022-11-13T08:42:41.580Z,84.38
2022-11-13T08:43:41.590Z,84.38
2022-11-13T08:44:41.586Z,84.38
2022-11-13T08:45:41.588Z,84.38
2022-11-13T08:46:41.594Z,78.75
2022-11-13T08:47:41.596Z,84.38
2022-11-13T08:48:41.600Z,84.38
2022-11-13T08:49:41.610Z,78.75
2022-11-13T08:50:41.614Z,78.75
2022-11-13T08:51:41.610Z,90.00
2022-11-13T08:52:41.616Z,90.00
2022-11-13T08:53:41.743Z,90.00
2022-11-13T08:54:41.624Z,95.63
2022-11-13T08:55:41.637Z,106.88
2022-11-13T08:56:41.636Z,101.25
2022-11-13T08:57:41.635Z,95.63
2022-11-13T08:58:41.638Z,95.63
2022-11-13T08:59:41.649Z,106.88
2022-11-13T09:00:41.643Z,101.25
2022-11-13T09:01:41.652Z,101.25
2022-11-13T09:02:41.652Z,101.25
2022-11-13T09:03:41.694Z,106.88
2022-11-13T09:04:41.658Z,101.25
2022-11-13T09:05:41.664Z,101.25
2022-11-13T09:06:41.691Z,95.63
2022-11-13T09:07:41.679Z,101.25
2022-11-13T09:08:41.680Z,90.00
2022-11-13T09:09:41.804Z,95.63
2022-11-13T09:10:41.689Z,101.25
2022-11-13T09:11:41.687Z,101.25
2022-11-13T09:12:41.698Z,101.25
2022-11-13T09:13:45.066Z,106.88
2022-11-13T09:14:41.705Z,101.25
2022-11-13T09:15:41.700Z,95.63
2022-11-13T09:16:41.705Z,95.63
2022-11-13T09:17:41.714Z,95.63
2022-11-13T09:18:41.714Z,101.25
2022-11-13T09:19:41.717Z,101.25
2022-11-13T09:20:41.724Z,101.25
2022-11-13T09:21:41.723Z,95.63
2022-11-13T09:22:41.729Z,95.63
2022-11-13T09:23:41.738Z,101.25
2022-11-13T09:24:41.737Z,95.63
2022-11-13T09:25:41.858Z,95.63
2022-11-13T09:26:41.750Z,101.25
2022-11-13T09:27:41.755Z,95.63
2022-11-13T09:28:41.759Z,95.63
2022-11-13T09:29:41.760Z,95.63
2022-11-13T09:30:41.767Z,95.63
2022-11-13T09:31:41.763Z,95.63
2022-11-13T09:32:41.764Z,95.63
2022-11-13T09:33:41.777Z,95.63
2022-11-13T09:34:41.781Z,95.63
2022-11-13T09:35:41.778Z,90.00
2022-11-13T09:36:41.780Z,90.00
2022-11-13T09:37:41.793Z,90.00
2022-11-13T09:38:41.788Z,84.38
2022-11-13T09:39:41.801Z,90.00
2022-11-13T09:40:41.803Z,95.63
2022-11-13T09:41:41.926Z,90.00
2022-11-13T09:42:41.803Z,90.00
2022-11-13T09:43:41.810Z,95.63
2022-11-13T09:44:41.821Z,95.63
2022-11-13T09:45:41.826Z,84.38
2022-11-13T09:46:41.820Z,90.00
2022-11-13T09:47:41.824Z,95.63
2022-11-13T09:48:41.828Z,95.63
2022-11-13T09:49:41.839Z,95.63
2022-11-13T09:50:41.845Z,95.63
2022-11-13T09:51:41.848Z,95.63
2022-11-13T09:52:41.844Z,90.00
2022-11-13T09:53:41.857Z,84.38
2022-11-13T09:54:41.861Z,90.00
2022-11-13T09:55:41.864Z,101.25
2022-11-13T09:56:41.865Z,95.63
2022-11-13T09:57:41.981Z,95.63
2022-11-13T09:58:41.874Z,95.63
2022-11-13T09:59:41.869Z,95.63
2022-11-13T10:00:41.914Z,95.63
2022-11-13T10:01:41.880Z,95.63
2022-11-13T10:02:41.882Z,90.00
2022-11-13T10:04:41.890Z,95.63
2022-11-13T10:05:41.900Z,95.63
2022-11-13T10:06:41.966Z,95.63
2022-11-13T10:07:41.910Z,95.63
2022-11-13T10:08:41.915Z,90.00
2022-11-13T10:09:41.916Z,90.00
2022-11-13T10:10:41.923Z,95.63
2022-11-13T10:11:41.918Z,95.63
2022-11-13T10:12:41.923Z,90.00
2022-11-13T10:13:42.043Z,90.00
2022-11-13T10:14:41.933Z,84.38
2022-11-13T10:15:41.937Z,73.13
2022-11-13T10:16:41.939Z,78.75
2022-11-13T10:17:41.945Z,84.38
2022-11-13T10:18:41.956Z,90.00
2022-11-13T10:19:41.959Z,84.38
2022-11-13T10:20:41.963Z,84.38
2022-11-13T10:21:41.961Z,84.38
2022-11-13T10:22:41.967Z,84.38
2022-11-13T10:23:41.967Z,84.38
2022-11-13T10:24:41.979Z,90.00
2022-11-13T10:25:41.977Z,90.00
2022-11-13T10:26:41.990Z,84.38
2022-11-13T10:27:42.091Z,84.38
2022-11-13T10:28:51.039Z,78.75
2022-11-13T10:29:46.191Z,78.75
2022-11-13T10:30:42.014Z,90.00
2022-11-13T10:31:42.010Z,84.38
2022-11-13T10:32:42.013Z,84.38
2022-11-13T10:33:42.019Z,84.38
2022-11-13T10:34:42.015Z,90.00
2022-11-13T10:35:42.034Z,90.00
2022-11-13T10:36:42.023Z,90.00
2022-11-13T10:37:42.026Z,84.38
2022-11-13T10:38:42.039Z,84.38
2022-11-13T10:39:42.044Z,84.38
2022-11-13T10:40:42.058Z,78.75
2022-11-13T10:41:42.049Z,78.75
2022-11-13T10:42:42.063Z,84.38
2022-11-13T10:43:42.054Z,84.38
2022-11-13T10:44:42.058Z,84.38
2022-11-13T10:45:42.187Z,84.38
2022-11-13T10:46:42.066Z,78.75
2022-11-13T10:48:03.119Z,84.38
2022-11-13T10:48:42.081Z,84.38
2022-11-13T10:49:42.083Z,84.38
2022-11-13T10:50:42.088Z,84.38
2022-11-13T10:51:42.095Z,78.75
2022-11-13T10:52:42.096Z,78.75
2022-11-13T10:53:42.103Z,78.75
2022-11-13T10:54:42.107Z,84.38
2022-11-13T10:55:42.109Z,84.38
2022-11-13T10:56:42.108Z,78.75
2022-11-13T10:57:45.797Z,78.75
2022-11-13T10:58:42.118Z,84.38
2022-11-13T10:59:42.121Z,78.75
2022-11-13T11:00:42.174Z,78.75
2022-11-13T11:01:42.300Z,84.38
2022-11-13T11:02:42.141Z,84.38
2022-11-13T11:03:42.145Z,84.38
2022-11-13T11:04:42.143Z,84.38
2022-11-13T11:05:42.148Z,84.38
2022-11-13T11:07:17.911Z,84.38
2022-11-13T11:07:42.220Z,84.38
2022-11-13T11:08:42.158Z,84.38
2022-11-13T11:09:42.172Z,84.38
2022-11-13T11:10:42.168Z,90.00
2022-11-13T11:11:42.171Z,84.38
2022-11-13T11:12:42.175Z,101.25
2022-11-13T11:13:42.189Z,95.63
2022-11-13T11:14:42.184Z,90.00
2022-11-13T11:44:37.770Z,67.50
2022-11-13T11:45:37.666Z,73.13
2022-11-13T11:46:37.694Z,73.13
2022-11-13T11:47:37.671Z,73.13
2022-11-13T11:48:37.666Z,73.13
2022-11-13T11:49:37.672Z,73.13
2022-11-13T11:50:37.681Z,78.75
2022-11-13T11:51:37.683Z,73.13
2022-11-13T11:52:37.682Z,67.50
2022-11-13T11:53:37.698Z,61.88
2022-11-13T11:54:37.697Z,73.13
2022-11-13T11:55:37.700Z,67.50
2022-11-13T11:56:37.698Z,67.50
2022-11-13T11:57:37.701Z,61.88
2022-11-13T11:58:37.715Z,61.88
2022-11-13T11:59:37.717Z,61.88
2022-11-13T12:00:37.826Z,61.88
2022-11-13T12:01:37.724Z,61.88
2022-11-13T12:02:37.722Z,61.88
2022-11-13T12:03:37.732Z,61.88
2022-11-13T12:04:37.790Z,61.88
2022-11-13T12:05:37.810Z,67.50
2022-11-13T12:06:37.863Z,67.50
2022-11-13T12:07:37.745Z,61.88
2022-11-13T12:08:37.747Z,61.88
2022-11-13T12:09:37.757Z,61.88
2022-11-13T12:10:37.758Z,67.50
2022-11-13T12:11:37.767Z,67.50
2022-11-13T12:12:37.764Z,61.88
2022-11-13T12:13:37.769Z,61.88
2022-11-13T12:14:37.772Z,61.88
2022-11-13T12:15:37.778Z,61.88
2022-11-13T12:16:37.902Z,61.88
2022-11-13T12:17:37.795Z,61.88
2022-11-13T12:18:37.789Z,61.88
2022-11-13T12:19:37.795Z,61.88
2022-11-13T12:20:37.805Z,61.88
2022-11-13T12:21:37.810Z,61.88
2022-11-13T12:22:37.807Z,61.88
2022-11-13T12:23:37.812Z,61.88
2022-11-13T12:24:37.815Z,61.88
2022-11-13T12:25:37.827Z,61.88
2022-11-13T12:26:37.832Z,61.88
2022-11-13T12:27:37.836Z,61.88
2022-11-13T12:28:40.984Z,61.88
2022-11-13T12:29:37.839Z,56.25
2022-11-13T12:30:37.842Z,56.25
2022-11-13T12:31:37.846Z,56.25
2022-11-13T12:33:25.527Z,50.63
2022-11-13T12:34:25.406Z,50.63
2022-11-13T12:35:25.417Z,50.63
2022-11-13T12:36:25.423Z,50.63
2022-11-13T12:37:25.429Z,50.63
2022-11-13T12:38:25.591Z,45.00
2022-11-13T12:39:25.427Z,45.00
2022-11-13T12:40:25.438Z,45.00
2022-11-13T12:41:25.436Z,56.25
2022-11-13T12:42:25.444Z,50.63
2022-11-13T12:43:25.444Z,56.25
2022-11-13T12:44:25.459Z,56.25
2022-11-13T12:45:25.456Z,61.88
2022-11-13T12:46:25.469Z,61.88
2022-11-13T12:47:25.470Z,61.88
2022-11-13T12:48:25.532Z,56.25
2022-11-13T12:49:25.592Z,50.63
2022-11-13T12:50:31.419Z,50.63
2022-11-13T12:51:25.488Z,50.63
2022-11-13T12:52:25.492Z,50.63
2022-11-13T12:53:25.499Z,56.25
2022-11-13T12:54:25.502Z,61.88
2022-11-13T12:55:25.497Z,56.25
2022-11-13T12:56:25.501Z,56.25
2022-11-13T12:57:29.996Z,61.88
2022-11-13T12:58:25.852Z,61.88
2022-11-13T12:59:32.730Z,61.88
2022-11-13T13:00:25.521Z,61.88
2022-11-13T13:01:25.604Z,61.88
2022-11-13T13:02:25.537Z,61.88
2022-11-13T13:03:25.536Z,61.88
2022-11-13T13:04:25.544Z,61.88
2022-11-13T13:05:25.663Z,61.88
2022-11-13T13:06:25.545Z,56.25
2022-11-13T13:07:25.641Z,56.25
2022-11-13T13:08:25.829Z,50.63
2022-11-13T13:09:25.566Z,50.63
2022-11-13T13:10:25.563Z,50.63
2022-11-13T13:11:25.570Z,56.25
2022-11-13T13:12:25.575Z,56.25
2022-11-13T13:13:25.577Z,50.63
2022-11-13T13:14:25.588Z,50.63
2022-11-13T13:15:25.585Z,50.63
2022-11-13T13:16:25.610Z,50.63
2022-11-13T13:17:25.615Z,50.63
2022-11-13T13:18:25.774Z,50.63
2022-11-13T13:19:25.604Z,50.63
2022-11-13T13:20:25.609Z,50.63
2022-11-13T13:21:25.730Z,50.63
2022-11-13T13:22:25.617Z,50.63
2022-11-13T13:23:25.622Z,45.00
2022-11-13T13:24:25.636Z,50.63
2022-11-13T13:25:25.633Z,56.25
2022-11-13T13:26:25.633Z,56.25
2022-11-13T13:27:25.644Z,61.88
2022-11-13T13:28:25.806Z,61.88
2022-11-13T13:29:25.656Z,61.88
2022-11-13T13:30:25.675Z,61.88
2022-11-13T13:31:25.656Z,56.25
2022-11-13T13:32:25.661Z,50.63
2022-11-13T13:33:25.675Z,45.00
2022-11-13T13:34:25.676Z,45.00
2022-11-13T13:35:25.684Z,45.00
2022-11-13T13:36:25.688Z,45.00
2022-11-13T13:37:25.798Z,45.00
2022-11-13T13:38:25.754Z,45.00
2022-11-13T13:39:25.699Z,50.63
2022-11-13T13:40:25.699Z,56.25
2022-11-13T13:41:25.708Z,50.63
2022-11-13T14:36:50.792Z,22.50
2022-11-13T14:37:50.678Z,22.50
2022-11-13T14:38:52.344Z,28.13
2022-11-13T14:39:50.686Z,22.50
2022-11-13T14:40:50.682Z,22.50
2022-11-13T14:41:50.685Z,22.50
2022-11-13T14:42:50.688Z,22.50
2022-11-13T14:43:50.706Z,22.50
2022-11-13T14:44:50.696Z,16.88
2022-11-13T14:45:50.705Z,22.50
2022-11-13T14:46:50.709Z,22.50
2022-11-13T14:47:50.714Z,22.50
2022-11-13T14:48:50.717Z,22.50
2022-11-13T14:49:50.722Z,22.50
2022-11-13T14:50:50.726Z,22.50